Time;durP1;ratioP1;P1;durP2;ratioP2;P2;SDS_P1;SDS_P2;PMS_P1;PMS_P2;Temp;Humidity;BMP_temperature;BMP_pressure;BME280_temperature;BME280_humidity;BME280_pressure;Samples;Min_cycle;Max_cycle;Signal;HPM_P1;HPM_P2
2021/01/06 00:01:07;;;;;;;43.45;21.12;;;;;;;2.54;73.74;101209.52;1721432;82;20976;-79
2021/01/06 00:03:35;;;;;;;44.70;22.98;;;;;;;2.55;73.89;101203.44;1721592;82;20996;-79
2021/01/06 00:06:11;;;;;;;39.03;21.23;;;;;;;2.58;74.14;101217.65;1721840;82;21508;-79
2021/01/06 00:08:44;;;;;;;40.63;21.55;;;;;;;2.60;74.04;101224.07;1721747;82;21074;-80
2021/01/06 00:11:13;;;;;;;37.08;20.90;;;;;;;2.58;74.08;101220.23;1721770;82;22157;-80
2021/01/06 00:13:41;;;;;;;39.10;21.40;;;;;;;2.58;74.13;101219.36;1737460;80;21037;-80
2021/01/06 00:16:09;;;;;;;37.55;21.40;;;;;;;2.60;74.14;101209.83;1777643;80;21030;-80
2021/01/06 00:18:37;;;;;;;30.10;16.20;;;;;;;2.60;74.21;101206.83;1719097;82;21507;-79
2021/01/06 00:21:05;;;;;;;34.83;17.92;;;;;;;2.61;74.15;101204.63;1788910;79;20910;-80
2021/01/06 00:23:33;;;;;;;33.75;18.02;;;;;;;2.61;74.28;101211.55;1789450;79;21980;-80
2021/01/06 00:26:03;;;;;;;26.93;14.83;;;;;;;2.64;74.24;101222.69;1789112;79;21228;-80
2021/01/06 00:28:30;;;;;;;23.07;14.00;;;;;;;2.68;74.21;101222.21;1789123;79;20993;-80
2021/01/06 00:30:59;;;;;;;24.72;14.10;;;;;;;2.68;74.17;101221.77;1789062;79;21033;-80
2021/01/06 00:33:29;;;;;;;22.40;13.72;;;;;;;2.67;74.22;101222.66;1789152;79;20933;-80
2021/01/06 00:36:11;;;;;;;24.30;14.45;;;;;;;2.68;74.23;101220.47;1789259;79;21163;-80
2021/01/06 00:38:38;;;;;;;24.27;13.53;;;;;;;2.66;74.20;101222.67;1807005;79;21511;-79
2021/01/06 00:41:07;;;;;;;21.52;14.05;;;;;;;2.62;74.23;101223.61;1789222;79;21321;-79
2021/01/06 00:43:35;;;;;;;23.77;13.85;;;;;;;2.59;74.32;101216.75;1789338;79;21261;-80
2021/01/06 00:46:03;;;;;;;20.75;12.13;;;;;;;2.60;74.37;101222.77;1789474;79;21009;-79
2021/01/06 00:48:32;;;;;;;16.00;10.48;;;;;;;2.62;74.54;101211.54;1789210;79;22315;-79
2021/01/06 00:51:00;;;;;;;16.93;11.43;;;;;;;2.64;74.38;101220.10;1789190;79;20970;-80
2021/01/06 00:53:29;;;;;;;16.87;10.72;;;;;;;2.61;74.40;101203.34;1789117;79;21494;-79
2021/01/06 00:56:02;;;;;;;23.22;11.88;;;;;;;2.59;74.52;101204.25;1788718;79;21001;-81
2021/01/06 00:58:31;;;;;;;17.62;10.60;;;;;;;2.60;74.59;101207.24;1789234;79;21553;-80
2021/01/06 01:00:58;;;;;;;21.02;11.88;;;;;;;2.62;74.62;101215.42;1789231;79;21153;-80
2021/01/06 01:03:28;;;;;;;22.00;11.90;;;;;;;2.62;74.47;101216.72;1788216;79;20972;-80
2021/01/06 01:05:57;;;;;;;20.32;10.53;;;;;;;2.61;74.49;101221.47;1789475;79;20966;-80
2021/01/06 01:08:25;;;;;;;16.95;9.75;;;;;;;2.61;74.59;101227.09;1789118;79;20911;-80
2021/01/06 01:10:53;;;;;;;14.55;9.88;;;;;;;2.64;74.56;101223.14;1789323;79;21041;-80
2021/01/06 01:13:24;;;;;;;16.70;8.80;;;;;;;2.68;74.39;101217.88;1789475;79;22139;-80
2021/01/06 01:15:55;;;;;;;16.67;8.48;;;;;;;2.69;74.33;101226.49;1789114;79;20985;-80
2021/01/06 01:18:26;;;;;;;19.30;9.53;;;;;;;2.66;74.41;101220.09;1789342;79;20953;-78
2021/01/06 01:21:02;;;;;;;15.85;10.48;;;;;;;2.63;74.50;101206.76;1789336;79;20938;-80
2021/01/06 01:23:30;;;;;;;17.12;10.03;;;;;;;2.66;74.66;101212.31;1789262;79;21120;-79
2021/01/06 01:25:59;;;;;;;19.57;10.00;;;;;;;2.71;74.47;101213.08;1789353;79;21160;-80
2021/01/06 01:28:27;;;;;;;17.05;10.60;;;;;;;2.70;74.36;101209.64;1788957;79;20914;-81
2021/01/06 01:30:55;;;;;;;18.52;11.65;;;;;;;2.67;74.39;101203.69;1789262;79;21013;-80
2021/01/06 01:33:25;;;;;;;17.40;10.10;;;;;;;2.63;74.50;101205.47;1789245;79;20957;-81
2021/01/06 01:35:58;;;;;;;15.75;8.38;;;;;;;2.67;74.63;101208.87;1789105;79;20950;-79
2021/01/06 01:38:29;;;;;;;16.10;10.45;;;;;;;2.73;74.65;101213.91;1809476;79;21200;-80
2021/01/06 01:41:07;;;;;;;16.65;10.65;;;;;;;2.76;74.54;101216.88;1789381;79;20964;-80
2021/01/06 01:43:36;;;;;;;18.27;11.12;;;;;;;2.76;74.56;101204.81;1816223;78;20966;-80
2021/01/06 01:46:09;;;;;;;15.88;10.38;;;;;;;2.78;74.50;101209.94;1789021;79;21021;-80
2021/01/06 01:48:50;;;;;;;17.23;10.13;;;;;;;2.77;74.51;101211.69;1789335;79;20934;-80
2021/01/06 01:51:40;;;;;;;21.93;12.30;;;;;;;2.77;74.55;101212.13;1789231;79;21175;-80
2021/01/06 01:54:11;;;;;;;17.35;10.48;;;;;;;2.76;74.57;101216.47;1789300;79;21009;-81
2021/01/06 01:56:59;;;;;;;22.10;13.35;;;;;;;2.75;74.69;101213.89;1789416;79;22800;-80
2021/01/06 01:59:48;;;;;;;17.82;10.38;;;;;;;2.78;74.69;101211.23;1789239;79;21061;-80
2021/01/06 02:02:51;;;;;;;20.35;11.43;;;;;;;2.81;74.66;101213.34;1816031;78;20961;-80
2021/01/06 02:05:38;;;;;;;16.82;10.50;;;;;;;2.79;74.71;101209.08;1788953;79;21378;-80
2021/01/06 02:08:23;;;;;;;19.82;11.65;;;;;;;2.79;74.79;101203.45;1789116;79;20961;-79
2021/01/06 02:10:58;;;;;;;20.52;11.53;;;;;;;2.81;74.76;101202.98;1789060;79;21041;-81
2021/01/06 02:13:38;;;;;;;18.23;11.20;;;;;;;2.82;74.80;101199.49;1789075;79;21525;-80
2021/01/06 02:16:17;;;;;;;19.95;11.20;;;;;;;2.85;74.78;101205.94;1788993;79;20946;-81
2021/01/06 02:18:45;;;;;;;16.95;10.60;;;;;;;2.88;74.57;101203.72;1809191;79;21194;-81
2021/01/06 02:21:16;;;;;;;19.95;10.45;;;;;;;2.85;74.64;101204.64;1789237;79;21017;-80
2021/01/06 02:23:46;;;;;;;19.75;9.53;;;;;;;2.87;74.62;101202.87;1789317;79;20950;-80
2021/01/06 02:26:14;;;;;;;17.12;10.50;;;;;;;2.89;74.53;101204.12;1792667;79;20993;-79
2021/01/06 02:28:42;;;;;;;14.78;8.95;;;;;;;2.87;74.57;101202.03;1789528;79;21045;-80
2021/01/06 02:31:10;;;;;;;13.32;8.93;;;;;;;2.85;74.63;101200.75;1788953;79;21143;-80
2021/01/06 02:33:38;;;;;;;17.23;10.85;;;;;;;2.85;74.63;101192.98;1789111;79;21483;-80
2021/01/06 02:36:06;;;;;;;16.40;9.88;;;;;;;2.82;74.69;101195.61;1789412;79;21037;-80
2021/01/06 02:38:34;;;;;;;16.00;11.18;;;;;;;2.82;74.69;101199.49;1789047;79;20942;-80
2021/01/06 02:41:02;;;;;;;18.40;9.35;;;;;;;2.79;74.75;101201.30;1789191;79;21001;-79
2021/01/06 02:43:30;;;;;;;19.20;9.40;;;;;;;2.75;74.84;101196.61;1789203;79;21191;-81
2021/01/06 02:45:58;;;;;;;15.70;9.38;;;;;;;2.75;74.87;101198.35;1789061;79;20954;-79
2021/01/06 02:48:26;;;;;;;21.27;10.08;;;;;;;2.75;74.94;101194.02;1789130;79;20942;-79
2021/01/06 02:51:06;;;;;;;17.87;9.90;;;;;;;2.76;75.05;101196.16;1789254;79;20921;-80
2021/01/06 02:53:49;;;;;;;20.85;11.65;;;;;;;2.75;75.14;101196.61;1789219;79;20956;-80
2021/01/06 02:56:18;;;;;;;20.80;10.20;;;;;;;2.75;75.22;101194.02;1789617;79;20958;-81
2021/01/06 02:58:48;;;;;;;23.10;11.28;;;;;;;2.77;75.29;101197.89;1789242;79;20978;-80
2021/01/06 03:01:18;;;;;;;24.52;11.53;;;;;;;2.78;75.35;101201.75;1789128;79;20966;-80
2021/01/06 03:03:46;;;;;;;27.55;11.80;;;;;;;2.79;75.40;101201.30;1788938;79;20965;-80
2021/01/06 03:06:23;;;;;;;22.93;11.95;;;;;;;2.82;75.46;101197.35;1789745;79;21527;-81
2021/01/06 03:08:51;;;;;;;30.35;13.45;;;;;;;2.82;75.53;101201.23;1788210;79;21093;-80
2021/01/06 03:11:19;;;;;;;27.22;12.60;;;;;;;2.80;75.77;101203.88;1788922;79;21001;-81
2021/01/06 03:13:47;;;;;;;31.70;13.08;;;;;;;2.80;75.85;101206.88;1789439;78;21392;-80
2021/01/06 03:16:15;;;;;;;32.70;13.78;;;;;;;2.79;75.99;101203.45;1792438;78;20970;-79
2021/01/06 03:18:43;;;;;;;28.60;13.70;;;;;;;2.80;76.05;101201.29;1794963;78;21005;-77
2021/01/06 03:21:11;;;;;;;28.27;14.38;;;;;;;2.84;76.08;101203.36;1795134;78;21017;-79
2021/01/06 03:23:43;;;;;;;30.62;14.68;;;;;;;2.85;76.16;101202.50;1792193;78;20965;-78
2021/01/06 03:26:14;;;;;;;34.00;13.75;;;;;;;2.85;76.13;101207.23;1792710;78;20997;-81
2021/01/06 03:28:42;;;;;;;32.50;14.38;;;;;;;2.84;76.24;101202.06;1791931;78;21017;-81
2021/01/06 03:31:15;;;;;;;33.88;14.80;;;;;;;2.82;76.33;101211.59;1792036;78;21537;-81
2021/01/06 03:33:58;;;;;;;29.77;13.85;;;;;;;2.81;76.47;101210.75;1791814;78;21423;-80
2021/01/06 03:36:30;;;;;;;33.78;15.28;;;;;;;2.81;76.61;101205.57;1791831;78;20961;-81
2021/01/06 03:39:02;;;;;;;35.15;16.35;;;;;;;2.85;76.64;101207.67;1791838;78;20922;-80
2021/01/06 03:41:30;;;;;;;32.63;15.40;;;;;;;2.87;76.66;101214.53;1766644;78;21136;-80
2021/01/06 03:44:06;;;;;;;34.38;16.32;;;;;;;2.88;76.60;101217.52;1791730;78;20958;-80
2021/01/06 03:46:50;;;;;;;36.68;16.27;;;;;;;2.86;76.58;101217.14;1791632;78;21025;-80
2021/01/06 03:49:42;;;;;;;32.35;15.32;;;;;;;2.83;76.72;101218.50;1769684;78;20953;-81
2021/01/06 03:52:37;;;;;;;34.10;15.18;;;;;;;2.81;76.79;101221.56;1791765;78;21068;-80
2021/01/06 03:55:38;;;;;;;35.15;15.28;;;;;;;2.77;77.00;101214.72;1818795;78;20970;-81
2021/01/06 03:58:05;;;;;;;32.55;15.18;;;;;;;2.75;77.13;101221.22;1818596;78;21489;-81
2021/01/06 04:00:42;;;;;;;29.52;14.20;;;;;;;2.76;77.38;101219.05;1792060;78;21240;-81
2021/01/06 04:03:31;;;;;;;35.28;17.55;;;;;;;2.81;77.44;101221.11;1792552;78;21554;-78
2021/01/06 04:05:59;;;;;;;36.60;15.40;;;;;;;2.86;77.37;101221.88;1792398;78;20998;-80
2021/01/06 04:08:45;;;;;;;37.58;17.37;;;;;;;2.87;77.29;101222.30;1792524;78;20930;-81
2021/01/06 04:11:17;;;;;;;30.62;14.10;;;;;;;2.85;77.35;101223.22;1818742;78;20982;-79
2021/01/06 04:13:47;;;;;;;39.33;14.38;;;;;;;2.86;77.41;101223.61;1791515;79;21092;-79
2021/01/06 04:16:15;;;;;;;32.55;15.75;;;;;;;2.81;77.51;101228.88;1788979;79;20961;-81
2021/01/06 04:18:43;;;;;;;30.08;13.85;;;;;;;2.79;77.92;101226.75;1789279;79;21427;-81
2021/01/06 04:21:12;;;;;;;39.48;17.40;;;;;;;2.83;77.91;101232.75;1789092;79;20997;-81
2021/01/06 04:23:40;;;;;;;39.67;16.15;;;;;;;2.82;77.93;101232.31;1789338;79;21041;-81
2021/01/06 04:26:12;;;;;;;39.13;16.30;;;;;;;2.79;78.02;101230.64;1788920;79;20946;-82
2021/01/06 04:28:41;;;;;;;30.55;14.15;;;;;;;2.74;78.13;101231.17;1789453;79;21033;-82
2021/01/06 04:31:16;;;;;;;31.15;16.40;;;;;;;2.70;78.28;101235.98;1789412;79;20906;-82
2021/01/06 04:33:51;;;;;;;40.23;16.90;;;;;;;2.69;78.38;101228.67;1789176;79;20945;-82
2021/01/06 04:38:49;;;;;;;33.38;15.58;;;;;;;2.75;78.59;101231.57;1777394;79;22639;-81
2021/01/06 04:41:38;;;;;;;34.85;15.40;;;;;;;2.73;78.68;101232.48;1720182;81;21113;-82
2021/01/06 04:44:34;;;;;;;32.15;14.93;;;;;;;2.76;78.72;101236.30;1719004;82;21179;-81
2021/01/06 04:47:49;;;;;;;38.00;17.15;;;;;;;2.79;78.65;101243.59;1681273;84;21020;-81
2021/01/06 04:50:42;;;;;;;36.10;16.82;;;;;;;2.82;78.51;101247.41;1681612;84;20992;-82
2021/01/06 04:53:34;;;;;;;28.95;15.15;;;;;;;2.86;78.41;101246.92;1681442;84;21020;-81
2021/01/06 04:56:25;;;;;;;32.15;17.12;;;;;;;2.85;78.37;101247.37;1681506;84;21012;-82
2021/01/06 04:59:20;;;;;;;41.23;15.05;;;;;;;2.86;78.54;101245.62;1681437;82;22120;-82
2021/01/06 05:02:26;;;;;;;34.13;15.40;;;;;;;2.91;78.75;101250.28;1681437;84;21060;-82
2021/01/06 05:05:29;;;;;;;40.48;15.70;;;;;;;2.96;78.60;101249.77;1681447;84;21131;-81
2021/01/06 05:08:23;;;;;;;33.75;16.05;;;;;;;2.99;78.53;101250.16;1682143;84;21078;-80
2021/01/06 05:11:14;;;;;;;33.88;15.65;;;;;;;2.95;78.55;101254.53;1681357;84;21000;-82
2021/01/06 05:13:56;;;;;;;39.60;17.82;;;;;;;2.96;78.62;101250.19;1681351;84;21651;-82
2021/01/06 05:16:38;;;;;;;29.27;15.32;;;;;;;2.98;78.77;101253.19;1681385;84;21439;-80
2021/01/06 05:19:32;;;;;;;36.53;16.50;;;;;;;3.10;78.78;101250.36;1852659;77;23221;-82
2021/01/06 05:22:00;;;;;;;35.38;17.20;;;;;;;3.10;78.83;101256.84;1788300;78;20978;-80
2021/01/06 05:24:39;;;;;;;31.52;16.80;;;;;;;3.13;78.54;101249.44;1719274;82;21160;-81
2021/01/06 05:27:16;;;;;;;41.60;18.60;;;;;;;3.13;78.53;101251.19;1788280;78;21448;-80
2021/01/06 05:29:55;;;;;;;40.10;19.67;;;;;;;3.11;78.46;101249.49;1745455;81;21093;-81
2021/01/06 05:32:39;;;;;;;37.23;18.70;;;;;;;3.14;78.51;101252.91;1788291;78;20938;-81
2021/01/06 05:35:13;;;;;;;34.08;16.95;;;;;;;3.17;78.48;101254.14;1787077;78;20962;-81
2021/01/06 05:37:44;;;;;;;43.50;18.10;;;;;;;3.21;78.40;101258.38;1746114;81;21365;-81
2021/01/06 05:40:14;;;;;;;33.48;17.30;;;;;;;3.22;78.23;101262.22;1788471;78;21706;-81
2021/01/06 05:42:55;;;;;;;42.95;18.73;;;;;;;3.21;78.54;101263.56;1719647;82;20950;-80
2021/01/06 05:45:43;;;;;;;42.78;19.65;;;;;;;3.24;78.52;101263.49;1820222;78;20935;-82
2021/01/06 05:48:21;;;;;;;37.75;19.05;;;;;;;3.22;78.46;101263.52;1787236;78;20954;-80
2021/01/06 05:51:09;;;;;;;46.45;20.02;;;;;;;3.22;78.53;101271.29;1745564;82;21278;-78
2021/01/06 05:54:02;;;;;;;47.10;20.52;;;;;;;3.20;78.49;101274.38;1787994;78;21021;-80
2021/01/06 05:56:45;;;;;;;45.12;21.75;;;;;;;3.18;78.40;101277.86;1787991;78;21449;-81
2021/01/06 05:59:40;;;;;;;39.45;19.73;;;;;;;3.13;78.54;101280.54;1786799;78;21119;-81
2021/01/06 06:02:49;;;;;;;36.77;18.55;;;;;;;3.12;78.73;101282.73;1719443;81;21026;-81
2021/01/06 06:05:58;;;;;;;40.73;19.52;;;;;;;3.08;78.99;101293.58;1788200;78;21245;-80
2021/01/06 06:09:01;;;;;;;49.00;19.60;;;;;;;3.09;78.96;101292.72;1745785;82;21516;-80
2021/01/06 06:11:50;;;;;;;41.95;22.55;;;;;;;3.11;79.22;101291.37;1820295;78;21416;-80
2021/01/06 06:14:47;;;;;;;46.08;20.20;;;;;;;3.18;79.21;101284.34;1745466;82;21110;-80
2021/01/06 06:17:29;;;;;;;48.70;21.23;;;;;;;3.25;78.95;101276.44;1788302;78;21005;-80
2021/01/06 06:20:21;;;;;;;33.23;18.70;;;;;;;3.27;78.93;101275.97;1719405;82;21038;-80
2021/01/06 06:23:23;;;;;;;44.83;20.00;;;;;;;3.25;79.00;101284.21;1788243;78;20962;-79
2021/01/06 06:26:27;;;;;;;43.65;20.48;;;;;;;3.22;79.22;101275.62;1800129;78;20927;-82
2021/01/06 06:29:13;;;;;;;41.58;21.35;;;;;;;3.23;79.31;101285.97;1745385;81;21013;-81
2021/01/06 06:31:46;;;;;;;51.77;22.73;;;;;;;3.23;79.34;101283.38;1776079;78;20947;-81
2021/01/06 06:34:15;;;;;;;44.50;21.37;;;;;;;3.22;79.35;101287.29;1745260;81;22404;-82
2021/01/06 06:36:46;;;;;;;49.67;21.27;;;;;;;3.19;79.32;101291.25;1814874;78;20971;-81
2021/01/06 06:39:29;;;;;;;41.83;21.27;;;;;;;3.17;79.46;101293.86;1718798;82;21034;-80
2021/01/06 06:42:18;;;;;;;50.88;23.10;;;;;;;3.19;80.00;101295.13;1787877;78;21065;-80
2021/01/06 06:44:57;;;;;;;40.55;20.00;;;;;;;3.24;80.30;101293.30;1819584;78;21531;-79
2021/01/06 06:47:51;;;;;;;50.52;21.80;;;;;;;3.33;80.33;101295.72;1814490;78;20958;-80
2021/01/06 06:50:52;;;;;;;49.13;22.70;;;;;;;3.43;80.30;101301.59;1786099;78;20986;-82
2021/01/06 06:53:56;;;;;;;49.58;22.77;;;;;;;3.55;79.92;101300.05;1814513;78;20998;-81
2021/01/06 06:56:56;;;;;;;77.12;43.08;;;;;;;3.64;79.72;101305.48;1722240;82;21058;-80
2021/01/06 06:59:29;;;;;;;43.73;21.77;;;;;;;3.72;79.48;101308.34;1791011;78;21357;-82
2021/01/06 07:02:01;;;;;;;48.80;24.02;;;;;;;3.76;79.21;101307.84;1747109;82;21889;-82
2021/01/06 07:04:43;;;;;;;44.23;21.87;;;;;;;3.80;79.21;101300.84;1789886;78;21021;-81
2021/01/06 07:07:41;;;;;;;53.00;24.30;;;;;;;3.82;79.15;101302.95;1787961;78;20938;-82
2021/01/06 07:10:27;;;;;;;54.38;25.15;;;;;;;3.86;79.14;101304.16;1745262;81;21029;-83
2021/01/06 07:13:05;;;;;;;56.92;26.25;;;;;;;3.89;78.83;101301.52;1789048;78;21055;-83
2021/01/06 07:15:49;;;;;;;48.00;22.22;;;;;;;3.87;78.89;101296.80;1720378;82;22090;-80
2021/01/06 07:18:39;;;;;;;51.63;25.35;;;;;;;3.87;78.99;101308.48;1781647;80;21021;-81
2021/01/06 07:21:17;;;;;;;51.05;26.25;;;;;;;3.88;79.14;101301.09;1801374;78;21161;-80
2021/01/06 07:24:12;;;;;;;48.63;25.48;;;;;;;3.94;79.28;101298.37;1801479;79;21038;-80
2021/01/06 07:26:45;;;;;;;42.05;23.05;;;;;;;4.01;79.03;101302.98;1775716;79;20959;-79
2021/01/06 07:29:15;;;;;;;62.88;29.52;;;;;;;3.98;79.10;101315.16;1801404;79;21598;-79
2021/01/06 07:32:01;;;;;;;50.08;23.18;;;;;;;3.99;79.13;101316.88;1801546;78;21026;-81
2021/01/06 07:34:52;;;;;;;55.65;24.85;;;;;;;3.96;79.12;101308.73;1801316;79;21033;-81
2021/01/06 07:37:34;;;;;;;45.30;24.10;;;;;;;3.99;79.14;101306.50;1801303;79;21026;-79
2021/01/06 07:40:17;;;;;;;42.15;23.30;;;;;;;4.02;79.08;101316.36;1801444;79;20946;-81
2021/01/06 07:42:52;;;;;;;50.78;23.32;;;;;;;4.03;79.20;101311.59;1801380;79;22054;-81
2021/01/06 07:45:29;;;;;;;44.93;24.10;;;;;;;4.02;79.15;101303.83;1801421;79;21491;-80
2021/01/06 07:48:21;;;;;;;48.48;22.98;;;;;;;3.98;79.29;101312.14;1801401;79;20990;-81
2021/01/06 07:51:03;;;;;;;45.90;24.12;;;;;;;4.01;79.45;101315.11;1792821;80;20927;-81
2021/01/06 07:53:46;;;;;;;43.38;21.12;;;;;;;4.04;79.40;101315.88;1801339;79;20939;-80
2021/01/06 07:56:49;;;;;;;41.92;22.00;;;;;;;4.12;79.37;101316.58;1801190;79;21032;-79
2021/01/06 07:59:50;;;;;;;38.70;20.70;;;;;;;4.18;79.31;101319.91;1801273;79;21038;-80
2021/01/06 08:02:54;;;;;;;41.83;21.23;;;;;;;4.22;79.14;101319.81;1801449;79;20954;-80
2021/01/06 08:05:29;;;;;;;44.58;21.42;;;;;;;4.27;79.18;101319.28;1774823;80;21487;-79
2021/01/06 08:08:14;;;;;;;41.70;21.17;;;;;;;4.34;78.98;101322.14;1801598;79;21037;-80
2021/01/06 08:10:44;;;;;;;39.45;21.57;;;;;;;4.42;78.86;101322.41;1801375;79;21155;-81
2021/01/06 08:13:23;;;;;;;40.52;22.32;;;;;;;4.45;78.62;101315.86;1801463;79;20966;-80
2021/01/06 08:16:00;;;;;;;40.17;21.68;;;;;;;4.46;78.32;101317.10;1801405;79;20962;-81
2021/01/06 08:18:51;;;;;;;41.10;20.82;;;;;;;4.42;78.28;101312.02;1801434;78;20974;-80
2021/01/06 08:21:44;;;;;;;36.05;19.50;;;;;;;4.50;78.33;101321.34;1814451;78;21380;-79
2021/01/06 08:24:23;;;;;;;41.65;22.20;;;;;;;4.61;78.60;101321.55;1814393;78;21161;-79
2021/01/06 08:26:55;;;;;;;33.60;20.08;;;;;;;4.71;78.19;101313.50;1786258;78;20966;-78
2021/01/06 08:29:27;;;;;;;36.80;18.40;;;;;;;4.76;77.91;101317.28;1744697;81;20959;-79
2021/01/06 08:32:09;;;;;;;34.03;18.20;;;;;;;4.81;77.73;101319.30;1787527;78;20935;-78
2021/01/06 08:34:40;;;;;;;30.82;18.87;;;;;;;4.82;77.59;101315.80;1777652;78;21034;-78
2021/01/06 08:37:11;;;;;;;34.27;18.62;;;;;;;4.83;77.62;101309.73;1788407;78;21468;-79
2021/01/06 08:39:54;;;;;;;37.85;20.30;;;;;;;4.90;77.60;101303.48;1718683;82;21467;-78
2021/01/06 08:42:45;;;;;;;37.38;19.25;;;;;;;4.99;77.48;101311.04;1786803;78;20950;-79
2021/01/06 08:45:32;;;;;;;32.83;18.07;;;;;;;5.07;77.36;101309.98;1814245;78;20951;-79
2021/01/06 08:48:39;;;;;;;33.70;17.80;;;;;;;5.14;77.35;101316.75;1764173;78;21018;-78
2021/01/06 08:51:13;;;;;;;41.75;21.45;;;;;;;5.18;77.25;101306.23;1787014;78;21158;-79
2021/01/06 08:53:44;;;;;;;39.38;20.95;;;;;;;5.19;77.32;101310.52;1719880;82;21108;-78
2021/01/06 08:56:28;;;;;;;41.42;20.48;;;;;;;5.19;77.36;101309.22;1787513;78;20947;-79
2021/01/06 08:58:57;;;;;;;35.85;19.20;;;;;;;5.21;77.39;101311.78;1744721;82;21513;-79
2021/01/06 09:01:42;;;;;;;31.27;17.17;;;;;;;5.22;77.57;101310.03;1787711;78;21369;-79
2021/01/06 09:04:14;;;;;;;36.38;21.57;;;;;;;5.18;77.71;101317.92;1720517;81;21414;-80
2021/01/06 09:06:56;;;;;;;43.63;21.15;;;;;;;5.18;77.91;101319.23;1787526;78;20970;-80
2021/01/06 09:09:39;;;;;;;38.67;20.97;;;;;;;5.17;78.03;101315.36;1812848;78;20946;-80
2021/01/06 09:12:37;;;;;;;34.08;18.62;;;;;;;5.18;78.11;101322.28;1814202;78;21042;-80
2021/01/06 09:15:09;;;;;;;36.98;20.48;;;;;;;5.18;78.12;101319.23;1685975;84;20979;-79
2021/01/06 09:17:53;;;;;;;36.58;21.87;;;;;;;5.19;78.22;101325.27;1739295;81;21168;-80
2021/01/06 09:20:25;;;;;;;41.92;22.60;;;;;;;5.19;78.29;101324.81;1702330;83;21102;-79
2021/01/06 09:22:53;;;;;;;37.33;20.17;;;;;;;5.20;78.45;101313.97;1755373;80;20938;-80
2021/01/06 09:25:26;;;;;;;37.38;19.65;;;;;;;5.24;78.57;101317.34;1755470;81;21061;-78
2021/01/06 09:27:57;;;;;;;39.98;22.32;;;;;;;5.33;78.75;101321.84;1755203;81;21553;-78
2021/01/06 09:30:32;;;;;;;43.00;21.75;;;;;;;5.43;78.69;101319.02;1755644;81;22440;-78
2021/01/06 09:33:22;;;;;;;43.45;21.57;;;;;;;5.59;78.55;101318.98;1849281;76;22729;-80
2021/01/06 09:35:50;;;;;;;48.55;26.07;;;;;;;5.60;78.44;101323.28;1782954;77;21096;-78
2021/01/06 09:38:35;;;;;;;41.23;21.52;;;;;;;5.63;78.28;101324.97;1786473;79;21173;-89
2021/01/06 09:41:08;;;;;;;49.15;25.62;;;;;;;5.64;78.26;101325.36;1786336;79;21010;-76
2021/01/06 09:43:47;;;;;;;45.15;26.07;;;;;;;5.64;78.27;101325.36;1786542;79;21460;-81
2021/01/06 09:46:39;;;;;;;48.40;25.82;;;;;;;5.65;78.37;101324.03;1786462;79;21352;-81
2021/01/06 09:49:36;;;;;;;40.48;22.98;;;;;;;5.68;78.54;101314.83;1786394;79;20934;-81
2021/01/06 09:52:38;;;;;;;55.00;28.40;;;;;;;5.77;78.90;101310.65;1882770;75;22794;-83
2021/01/06 09:55:07;;;;;;;39.60;23.02;;;;;;;5.77;78.99;101308.05;1763396;80;20982;-83
2021/01/06 09:57:35;;;;;;;37.25;20.35;;;;;;;5.81;79.04;101304.47;1719862;80;21231;-80
2021/01/06 10:00:24;;;;;;;37.28;16.67;;;;;;;5.88;79.01;101305.59;1749473;80;21526;-88
2021/01/06 10:02:52;;;;;;;30.25;16.95;;;;;;;5.90;79.08;101306.41;1743876;80;21077;-87
2021/01/06 10:05:49;;;;;;;34.10;18.30;;;;;;;5.91;79.25;101312.84;1761470;80;21356;-84
2021/01/06 10:08:32;;;;;;;35.83;19.80;;;;;;;5.92;79.39;101309.81;1780732;78;20966;-87
2021/01/06 10:11:28;;;;;;;32.38;17.87;;;;;;;5.94;79.60;101314.53;1780853;78;21052;-84
2021/01/06 10:14:33;;;;;;;30.20;17.70;;;;;;;5.97;79.72;101310.55;1746933;80;20931;-87
2021/01/06 10:17:15;;;;;;;30.23;16.32;;;;;;;5.95;79.81;101308.45;1782636;78;20955;-84
2021/01/06 10:20:18;;;;;;;32.55;16.23;;;;;;;5.98;79.98;101313.55;1734625;80;21112;-87
2021/01/06 10:22:54;;;;;;;20.52;13.08;;;;;;;5.98;80.15;101307.04;1767718;79;21029;-87
2021/01/06 10:26:02;;;;;;;25.92;16.15;;;;;;;6.04;80.31;101313.83;1757240;80;21054;-89
2021/01/06 10:28:50;;;;;;;25.10;14.53;;;;;;;6.09;80.31;101310.20;1763215;80;20918;-85
2021/01/06 10:31:26;;;;;;;21.35;13.88;;;;;;;6.14;80.29;101312.20;1787878;78;21002;-89
2021/01/06 10:34:10;;;;;;;24.77;14.53;;;;;;;6.19;80.21;101301.19;1750677;80;21065;-88
2021/01/06 10:37:05;;;;;;;22.50;13.62;;;;;;;6.25;80.12;101309.28;1779137;76;21006;-87
2021/01/06 10:39:51;;;;;;;21.30;13.45;;;;;;;6.29;80.11;101310.89;1775086;78;21272;-89
2021/01/06 10:42:28;;;;;;;21.73;14.20;;;;;;;6.30;80.04;101302.63;1748292;80;20958;-85
2021/01/06 10:45:14;;;;;;;24.95;13.60;;;;;;;6.32;80.08;101306.88;1781256;78;21041;-88
2021/01/06 10:47:50;;;;;;;29.02;17.00;;;;;;;6.35;80.03;101299.41;1760780;79;20959;-84
2021/01/06 10:50:33;;;;;;;27.35;15.80;;;;;;;6.38;80.00;101304.09;1769365;78;21566;-84
2021/01/06 10:53:25;;;;;;;28.38;16.50;;;;;;;6.41;79.82;101296.16;1744974;79;21163;-82
2021/01/06 10:56:07;;;;;;;22.02;14.78;;;;;;;6.43;79.80;101300.88;1750963;80;21061;-82
2021/01/06 10:58:53;;;;;;;24.02;14.75;;;;;;;6.47;79.83;101300.34;1757020;80;20982;-81
2021/01/06 11:01:28;;;;;;;27.62;15.83;;;;;;;6.49;79.84;101309.39;1760815;80;21017;-79
2021/01/06 11:04:26;;;;;;;33.37;19.23;;;;;;;6.52;79.86;101299.73;1756685;78;21030;-80
2021/01/06 11:07:24;;;;;;;49.85;26.07;;;;;;;6.55;79.71;101305.30;1741350;80;21256;-80
2021/01/06 11:10:44;;;;;;;53.25;27.73;;;;;;;6.57;79.63;101306.95;1780087;78;20910;-81
2021/01/06 11:14:00;;;;;;;37.30;22.15;;;;;;;6.60;79.60;101302.95;1775271;79;21659;-80
2021/01/06 11:16:44;;;;;;;50.63;29.10;;;;;;;6.64;79.57;101303.69;1758926;79;21467;-81
2021/01/06 11:19:55;;;;;;;36.03;24.12;;;;;;;6.68;79.60;101298.78;1782324;78;20954;-81
2021/01/06 11:22:43;;;;;;;34.25;19.48;;;;;;;6.76;79.44;101286.78;1745468;80;22160;-83
2021/01/06 11:25:43;;;;;;;36.17;21.20;;;;;;;6.82;79.06;101293.11;1783016;78;21488;-80
2021/01/06 11:28:33;;;;;;;35.30;19.32;;;;;;;6.84;78.87;101288.23;1783579;78;21390;-79
2021/01/06 11:31:20;;;;;;;30.32;17.48;;;;;;;6.88;78.61;101290.76;1730527;79;20966;-79
2021/01/06 11:34:09;;;;;;;23.45;14.75;;;;;;;6.88;78.43;101289.00;1758568;80;20910;-79
2021/01/06 11:36:54;;;;;;;24.23;14.80;;;;;;;6.90;78.31;101295.47;1775529;79;21391;-81
2021/01/06 11:39:41;;;;;;;24.92;17.42;;;;;;;6.90;78.19;101298.08;1790929;79;21032;-80
2021/01/06 11:42:17;;;;;;;23.85;15.38;;;;;;;6.90;78.14;101308.50;1784573;78;21586;-80
2021/01/06 11:45:12;;;;;;;22.40;15.75;;;;;;;6.93;78.03;101307.94;1744674;80;21092;-82
2021/01/06 11:48:01;;;;;;;19.37;14.60;;;;;;;6.94;77.94;101303.59;1772455;78;20963;-85
2021/01/06 11:50:46;;;;;;;20.65;14.07;;;;;;;6.97;77.74;101306.09;1748375;79;21260;-78
2021/01/06 11:53:24;;;;;;;18.90;12.58;;;;;;;6.97;77.74;101308.69;1754956;80;21038;-76
2021/01/06 11:56:25;;;;;;;21.73;14.15;;;;;;;6.97;77.75;101308.69;1759620;79;20963;-79
2021/01/06 11:59:22;;;;;;;21.30;14.43;;;;;;;6.97;77.78;101312.14;1809612;78;20926;-80
2021/01/06 12:02:18;;;;;;;19.10;14.03;;;;;;;6.97;77.80;101314.75;1720779;81;20958;-79
2021/01/06 12:05:09;;;;;;;26.40;16.48;;;;;;;6.96;77.79;101307.84;1787761;79;21375;-76
2021/01/06 12:08:20;;;;;;;31.87;18.80;;;;;;;6.94;77.80;101310.95;1763859;80;20942;-79
2021/01/06 12:11:11;;;;;;;28.05;17.52;;;;;;;6.96;77.84;101316.98;1756924;78;20938;-80
2021/01/06 12:14:16;;;;;;;28.00;18.15;;;;;;;6.97;77.90;101317.36;1790383;79;21006;-82
2021/01/06 12:17:23;;;;;;;33.70;18.15;;;;;;;6.99;77.99;101318.16;1764059;80;21074;-80
2021/01/06 12:20:24;;;;;;;27.13;16.42;;;;;;;7.05;78.01;101319.73;1766035;78;21205;-79
2021/01/06 12:23:19;;;;;;;31.90;19.45;;;;;;;7.17;77.79;101317.14;1819454;78;23328;-82